SBCP/CAW METAR and TAF weather

Enter ICAO airport designator
Station Type Date Time Source
SBCP METAR 2019/12/07 17:00 UTC NOAA

SBCP 071700Z 10010KT 9999 FEW020 BKN090 26/19 Q1013


Station Type Date Time Source
SBCP Decoded METAR 2019/12/07 17:00 UTC NOAA

Campos, Brazil (SBCP) 21-45S 041-20W 11M
Dec 07, 2019 - 12:00 PM EST / 2019.12.07 1700 UTC
Wind: from the E (100 degrees) at 12 MPH (10 KT):0
Visibility: greater than 7 mile(s):0
Sky conditions: mostly cloudy
Temperature: 78 F (26 C)
Dew Point: 66 F (19 C)
Relative Humidity: 65%
Pressure (altimeter): 29.91 in. Hg (1013 hPa)
ob: SBCP 071700Z 10010KT 9999 FEW020 BKN090 26/19 Q1013
cycle: 17

Station Type Date Time Source
SBCP TAF 2019/12/07 18:58 UTC NOAA

TAF SBCP 071500Z 0718/0806 32015KT 9999 BKN015 TX26/0719Z TN22/0721Z
RMK PGY

Example: see airport list